sensor_id;sensor_type;location;lat;lon;timestamp;P1;durP1;ratioP1;P2;durP2;ratioP2
53521;SDS011;39398;48.382;9.802;2024-03-07T00:04:57;60.63;;;26.17;;
53521;SDS011;39398;48.382;9.802;2024-03-07T00:10:01;42.70;;;16.92;;
53521;SDS011;39398;48.382;9.802;2024-03-07T00:15:03;67.20;;;26.77;;
53521;SDS011;39398;48.382;9.802;2024-03-07T00:20:06;59.22;;;24.95;;
53521;SDS011;39398;48.382;9.802;2024-03-07T00:25:10;45.20;;;17.80;;
53521;SDS011;39398;48.382;9.802;2024-03-07T00:30:12;44.83;;;17.90;;
53521;SDS011;39398;48.382;9.802;2024-03-07T00:35:13;64.63;;;24.02;;
53521;SDS011;39398;48.382;9.802;2024-03-07T00:40:16;54.38;;;24.13;;
53521;SDS011;39398;48.382;9.802;2024-03-07T00:45:18;80.25;;;32.05;;
53521;SDS011;39398;48.382;9.802;2024-03-07T00:50:20;77.43;;;34.17;;
53521;SDS011;39398;48.382;9.802;2024-03-07T00:55:23;76.88;;;33.67;;
53521;SDS011;39398;48.382;9.802;2024-03-07T01:00:24;85.90;;;34.17;;
53521;SDS011;39398;48.382;9.802;2024-03-07T01:05:26;73.18;;;34.05;;
53521;SDS011;39398;48.382;9.802;2024-03-07T01:10:29;64.03;;;26.15;;
53521;SDS011;39398;48.382;9.802;2024-03-07T01:15:31;74.30;;;33.90;;
53521;SDS011;39398;48.382;9.802;2024-03-07T01:20:33;76.63;;;30.85;;
53521;SDS011;39398;48.382;9.802;2024-03-07T01:25:36;57.33;;;22.77;;
53521;SDS011;39398;48.382;9.802;2024-03-07T01:30:38;71.93;;;30.45;;
53521;SDS011;39398;48.382;9.802;2024-03-07T01:35:39;56.17;;;24.98;;
53521;SDS011;39398;48.382;9.802;2024-03-07T01:40:42;78.82;;;33.85;;
53521;SDS011;39398;48.382;9.802;2024-03-07T01:45:45;54.03;;;24.38;;
53521;SDS011;39398;48.382;9.802;2024-03-07T01:50:47;80.35;;;32.40;;
53521;SDS011;39398;48.382;9.802;2024-03-07T01:55:51;62.90;;;25.23;;
53521;SDS011;39398;48.382;9.802;2024-03-07T02:00:53;58.72;;;22.42;;
53521;SDS011;39398;48.382;9.802;2024-03-07T02:05:55;91.65;;;35.80;;
53521;SDS011;39398;48.382;9.802;2024-03-07T02:10:58;88.55;;;34.00;;
53521;SDS011;39398;48.382;9.802;2024-03-07T02:16:00;93.00;;;32.50;;
53521;SDS011;39398;48.382;9.802;2024-03-07T02:21:06;94.40;;;36.20;;
53521;SDS011;39398;48.382;9.802;2024-03-07T02:26:09;90.20;;;37.15;;
53521;SDS011;39398;48.382;9.802;2024-03-07T02:31:11;95.65;;;41.65;;
53521;SDS011;39398;48.382;9.802;2024-03-07T02:36:14;102.10;;;42.55;;
53521;SDS011;39398;48.382;9.802;2024-03-07T02:41:16;101.20;;;41.92;;
53521;SDS011;39398;48.382;9.802;2024-03-07T02:46:17;112.80;;;44.05;;
53521;SDS011;39398;48.382;9.802;2024-03-07T02:51:20;99.68;;;36.72;;
53521;SDS011;39398;48.382;9.802;2024-03-07T02:56:23;100.78;;;42.67;;
53521;SDS011;39398;48.382;9.802;2024-03-07T03:01:25;105.65;;;46.70;;
53521;SDS011;39398;48.382;9.802;2024-03-07T03:06:28;109.05;;;45.45;;
53521;SDS011;39398;48.382;9.802;2024-03-07T03:11:29;112.65;;;45.47;;
53521;SDS011;39398;48.382;9.802;2024-03-07T03:16:31;115.85;;;46.08;;
53521;SDS011;39398;48.382;9.802;2024-03-07T03:21:49;119.25;;;49.22;;
53521;SDS011;39398;48.382;9.802;2024-03-07T03:26:51;125.35;;;50.03;;
53521;SDS011;39398;48.382;9.802;2024-03-07T03:31:52;112.00;;;46.85;;
53521;SDS011;39398;48.382;9.802;2024-03-07T03:36:55;115.03;;;49.47;;
53521;SDS011;39398;48.382;9.802;2024-03-07T03:41:57;124.88;;;48.00;;
53521;SDS011;39398;48.382;9.802;2024-03-07T03:46:59;125.35;;;50.08;;
53521;SDS011;39398;48.382;9.802;2024-03-07T03:52:02;114.68;;;49.08;;
53521;SDS011;39398;48.382;9.802;2024-03-07T03:57:03;113.18;;;49.25;;
53521;SDS011;39398;48.382;9.802;2024-03-07T04:02:05;107.35;;;45.28;;
53521;SDS011;39398;48.382;9.802;2024-03-07T04:07:08;129.40;;;48.72;;
53521;SDS011;39398;48.382;9.802;2024-03-07T04:12:10;117.80;;;46.28;;
53521;SDS011;39398;48.382;9.802;2024-03-07T04:17:12;124.45;;;49.38;;
53521;SDS011;39398;48.382;9.802;2024-03-07T04:22:15;116.60;;;46.22;;
53521;SDS011;39398;48.382;9.802;2024-03-07T04:27:16;107.00;;;47.13;;
53521;SDS011;39398;48.382;9.802;2024-03-07T04:32:18;108.63;;;47.08;;
53521;SDS011;39398;48.382;9.802;2024-03-07T04:37:21;114.00;;;50.13;;
53521;SDS011;39398;48.382;9.802;2024-03-07T04:42:23;105.32;;;48.63;;
53521;SDS011;39398;48.382;9.802;2024-03-07T04:47:24;105.63;;;50.13;;
53521;SDS011;39398;48.382;9.802;2024-03-07T04:52:27;108.78;;;50.00;;
53521;SDS011;39398;48.382;9.802;2024-03-07T04:57:29;108.65;;;48.42;;
53521;SDS011;39398;48.382;9.802;2024-03-07T05:02:31;104.75;;;47.88;;
53521;SDS011;39398;48.382;9.802;2024-03-07T05:07:34;104.70;;;44.65;;
53521;SDS011;39398;48.382;9.802;2024-03-07T05:12:36;77.97;;;31.20;;
53521;SDS011;39398;48.382;9.802;2024-03-07T05:17:39;98.43;;;44.35;;
53521;SDS011;39398;48.382;9.802;2024-03-07T05:22:42;105.03;;;46.83;;
53521;SDS011;39398;48.382;9.802;2024-03-07T05:27:44;107.57;;;48.47;;
53521;SDS011;39398;48.382;9.802;2024-03-07T05:32:46;117.57;;;46.70;;
53521;SDS011;39398;48.382;9.802;2024-03-07T05:37:49;109.90;;;46.38;;
53521;SDS011;39398;48.382;9.802;2024-03-07T05:42:51;108.15;;;46.30;;
53521;SDS011;39398;48.382;9.802;2024-03-07T05:47:52;111.40;;;44.63;;
53521;SDS011;39398;48.382;9.802;2024-03-07T05:52:55;102.97;;;47.85;;
53521;SDS011;39398;48.382;9.802;2024-03-07T05:57:57;106.90;;;46.35;;
53521;SDS011;39398;48.382;9.802;2024-03-07T06:02:59;112.05;;;49.10;;
53521;SDS011;39398;48.382;9.802;2024-03-07T06:08:02;105.28;;;43.38;;
53521;SDS011;39398;48.382;9.802;2024-03-07T06:13:03;106.40;;;41.50;;
53521;SDS011;39398;48.382;9.802;2024-03-07T06:18:11;111.95;;;46.10;;
53521;SDS011;39398;48.382;9.802;2024-03-07T06:23:15;116.68;;;48.67;;
53521;SDS011;39398;48.382;9.802;2024-03-07T06:28:17;133.25;;;53.30;;
53521;SDS011;39398;48.382;9.802;2024-03-07T06:33:19;127.25;;;47.97;;
53521;SDS011;39398;48.382;9.802;2024-03-07T06:38:27;118.57;;;48.50;;
53521;SDS011;39398;48.382;9.802;2024-03-07T06:43:28;126.70;;;50.33;;
53521;SDS011;39398;48.382;9.802;2024-03-07T06:48:30;139.85;;;51.20;;
53521;SDS011;39398;48.382;9.802;2024-03-07T06:53:33;131.95;;;47.60;;
53521;SDS011;39398;48.382;9.802;2024-03-07T06:58:36;149.65;;;49.92;;
53521;SDS011;39398;48.382;9.802;2024-03-07T07:03:37;133.05;;;47.53;;
53521;SDS011;39398;48.382;9.802;2024-03-07T07:08:40;146.25;;;47.30;;
53521;SDS011;39398;48.382;9.802;2024-03-07T07:13:42;127.03;;;41.97;;
53521;SDS011;39398;48.382;9.802;2024-03-07T07:18:44;156.80;;;54.00;;
53521;SDS011;39398;48.382;9.802;2024-03-07T07:23:47;151.32;;;50.13;;
53521;SDS011;39398;48.382;9.802;2024-03-07T07:28:48;137.38;;;47.50;;
53521;SDS011;39398;48.382;9.802;2024-03-07T07:33:50;122.65;;;41.50;;
53521;SDS011;39398;48.382;9.802;2024-03-07T07:38:53;135.02;;;48.67;;
53521;SDS011;39398;48.382;9.802;2024-03-07T07:43:55;137.55;;;48.97;;
53521;SDS011;39398;48.382;9.802;2024-03-07T07:48:56;137.07;;;48.83;;
53521;SDS011;39398;48.382;9.802;2024-03-07T07:53:59;144.75;;;50.88;;
53521;SDS011;39398;48.382;9.802;2024-03-07T07:59:01;115.30;;;40.13;;
53521;SDS011;39398;48.382;9.802;2024-03-07T08:04:03;130.77;;;49.47;;
53521;SDS011;39398;48.382;9.802;2024-03-07T08:09:06;110.47;;;38.72;;
53521;SDS011;39398;48.382;9.802;2024-03-07T08:14:08;131.75;;;49.85;;
53521;SDS011;39398;48.382;9.802;2024-03-07T08:19:09;121.10;;;45.55;;
53521;SDS011;39398;48.382;9.802;2024-03-07T08:24:12;115.18;;;44.33;;
53521;SDS011;39398;48.382;9.802;2024-03-07T08:29:14;102.05;;;40.97;;
53521;SDS011;39398;48.382;9.802;2024-03-07T08:34:16;103.95;;;40.03;;
53521;SDS011;39398;48.382;9.802;2024-03-07T08:39:18;106.15;;;40.10;;
53521;SDS011;39398;48.382;9.802;2024-03-07T08:44:22;113.95;;;42.10;;
53521;SDS011;39398;48.382;9.802;2024-03-07T08:49:24;116.22;;;42.25;;
53521;SDS011;39398;48.382;9.802;2024-03-07T08:54:27;114.72;;;42.20;;
53521;SDS011;39398;48.382;9.802;2024-03-07T08:59:28;110.60;;;44.05;;
53521;SDS011;39398;48.382;9.802;2024-03-07T09:04:30;120.07;;;40.50;;
53521;SDS011;39398;48.382;9.802;2024-03-07T09:09:33;127.28;;;46.00;;
53521;SDS011;39398;48.382;9.802;2024-03-07T09:14:35;140.98;;;49.97;;
53521;SDS011;39398;48.382;9.802;2024-03-07T09:19:37;127.13;;;46.50;;
53521;SDS011;39398;48.382;9.802;2024-03-07T09:24:40;133.27;;;50.70;;
53521;SDS011;39398;48.382;9.802;2024-03-07T09:29:41;133.23;;;47.72;;
53521;SDS011;39398;48.382;9.802;2024-03-07T09:34:43;123.43;;;47.53;;
53521;SDS011;39398;48.382;9.802;2024-03-07T09:39:46;122.18;;;49.90;;
53521;SDS011;39398;48.382;9.802;2024-03-07T09:44:47;125.57;;;49.00;;
53521;SDS011;39398;48.382;9.802;2024-03-07T09:49:51;118.75;;;49.72;;
53521;SDS011;39398;48.382;9.802;2024-03-07T09:54:55;117.80;;;47.72;;
53521;SDS011;39398;48.382;9.802;2024-03-07T09:59:57;104.60;;;46.25;;
53521;SDS011;39398;48.382;9.802;2024-03-07T10:04:59;107.00;;;48.28;;
53521;SDS011;39398;48.382;9.802;2024-03-07T10:10:03;105.82;;;47.30;;
53521;SDS011;39398;48.382;9.802;2024-03-07T10:15:05;113.97;;;51.38;;
53521;SDS011;39398;48.382;9.802;2024-03-07T10:20:08;109.57;;;48.42;;
53521;SDS011;39398;48.382;9.802;2024-03-07T10:25:11;109.72;;;47.72;;
53521;SDS011;39398;48.382;9.802;2024-03-07T10:30:13;112.88;;;48.60;;
53521;SDS011;39398;48.382;9.802;2024-03-07T10:35:20;120.20;;;49.83;;
53521;SDS011;39398;48.382;9.802;2024-03-07T10:40:23;111.78;;;50.13;;
53521;SDS011;39398;48.382;9.802;2024-03-07T10:45:25;125.90;;;53.25;;
53521;SDS011;39398;48.382;9.802;2024-03-07T10:50:32;113.45;;;49.58;;
53521;SDS011;39398;48.382;9.802;2024-03-07T10:55:47;115.28;;;49.78;;
53521;SDS011;39398;48.382;9.802;2024-03-07T11:01:01;110.87;;;49.07;;
53521;SDS011;39398;48.382;9.802;2024-03-07T11:06:03;115.68;;;49.83;;
53521;SDS011;39398;48.382;9.802;2024-03-07T11:11:09;102.60;;;40.38;;
53521;SDS011;39398;48.382;9.802;2024-03-07T11:16:10;91.13;;;36.38;;
53521;SDS011;39398;48.382;9.802;2024-03-07T11:26:43;83.82;;;32.08;;
53521;SDS011;39398;48.382;9.802;2024-03-07T11:31:48;81.60;;;32.40;;
53521;SDS011;39398;48.382;9.802;2024-03-07T11:36:54;113.38;;;51.65;;
53521;SDS011;39398;48.382;9.802;2024-03-07T11:41:57;87.50;;;36.00;;
53521;SDS011;39398;48.382;9.802;2024-03-07T11:46:59;97.15;;;43.75;;
53521;SDS011;39398;48.382;9.802;2024-03-07T11:52:04;124.07;;;60.80;;
53521;SDS011;39398;48.382;9.802;2024-03-07T11:57:07;72.47;;;31.88;;
53521;SDS011;39398;48.382;9.802;2024-03-07T12:02:09;118.63;;;56.17;;
53521;SDS011;39398;48.382;9.802;2024-03-07T12:07:11;110.97;;;50.75;;
53521;SDS011;39398;48.382;9.802;2024-03-07T12:12:13;107.10;;;49.88;;
53521;SDS011;39398;48.382;9.802;2024-03-07T12:17:15;99.05;;;49.03;;
53521;SDS011;39398;48.382;9.802;2024-03-07T12:22:18;98.50;;;48.40;;
53521;SDS011;39398;48.382;9.802;2024-03-07T12:27:22;95.82;;;47.30;;
53521;SDS011;39398;48.382;9.802;2024-03-07T12:32:23;97.70;;;45.78;;
53521;SDS011;39398;48.382;9.802;2024-03-07T12:37:25;93.22;;;48.70;;
53521;SDS011;39398;48.382;9.802;2024-03-07T12:42:28;98.57;;;47.55;;
53521;SDS011;39398;48.382;9.802;2024-03-07T12:47:30;84.30;;;35.33;;
53521;SDS011;39398;48.382;9.802;2024-03-07T12:52:32;104.65;;;52.05;;
53521;SDS011;39398;48.382;9.802;2024-03-07T12:57:35;102.97;;;52.03;;
53521;SDS011;39398;48.382;9.802;2024-03-07T13:02:36;88.80;;;44.13;;
53521;SDS011;39398;48.382;9.802;2024-03-07T13:07:38;85.63;;;44.67;;
53521;SDS011;39398;48.382;9.802;2024-03-07T13:12:41;94.78;;;46.22;;
53521;SDS011;39398;48.382;9.802;2024-03-07T13:17:43;91.55;;;47.47;;
53521;SDS011;39398;48.382;9.802;2024-03-07T13:22:45;96.18;;;46.38;;
53521;SDS011;39398;48.382;9.802;2024-03-07T13:27:52;61.55;;;28.15;;
53521;SDS011;39398;48.382;9.802;2024-03-07T13:32:58;84.75;;;40.95;;
53521;SDS011;39398;48.382;9.802;2024-03-07T13:38:00;82.55;;;40.97;;
53521;SDS011;39398;48.382;9.802;2024-03-07T13:43:03;69.03;;;32.88;;
53521;SDS011;39398;48.382;9.802;2024-03-07T13:48:06;87.82;;;42.20;;
53521;SDS011;39398;48.382;9.802;2024-03-07T13:53:08;91.60;;;44.35;;
53521;SDS011;39398;48.382;9.802;2024-03-07T13:58:12;85.68;;;38.88;;
53521;SDS011;39398;48.382;9.802;2024-03-07T14:03:32;85.45;;;43.50;;
53521;SDS011;39398;48.382;9.802;2024-03-07T14:14:39;81.43;;;38.63;;
53521;SDS011;39398;48.382;9.802;2024-03-07T14:26:09;80.50;;;43.53;;
53521;SDS011;39398;48.382;9.802;2024-03-07T14:31:34;81.75;;;42.83;;
53521;SDS011;39398;48.382;9.802;2024-03-07T14:36:43;73.72;;;39.53;;
53521;SDS011;39398;48.382;9.802;2024-03-07T14:41:48;70.05;;;38.67;;
53521;SDS011;39398;48.382;9.802;2024-03-07T14:46:53;74.00;;;40.08;;
53521;SDS011;39398;48.382;9.802;2024-03-07T14:51:58;65.30;;;37.23;;
53521;SDS011;39398;48.382;9.802;2024-03-07T14:57:03;67.68;;;37.35;;
53521;SDS011;39398;48.382;9.802;2024-03-07T15:02:06;58.55;;;33.92;;
53521;SDS011;39398;48.382;9.802;2024-03-07T15:07:08;67.72;;;38.05;;
53521;SDS011;39398;48.382;9.802;2024-03-07T15:12:10;57.40;;;34.58;;
53521;SDS011;39398;48.382;9.802;2024-03-07T15:17:13;54.55;;;31.17;;
53521;SDS011;39398;48.382;9.802;2024-03-07T15:22:15;54.38;;;32.58;;
53521;SDS011;39398;48.382;9.802;2024-03-07T15:27:16;49.13;;;30.75;;
53521;SDS011;39398;48.382;9.802;2024-03-07T15:32:19;50.03;;;30.58;;
53521;SDS011;39398;48.382;9.802;2024-03-07T15:37:21;48.80;;;27.52;;
53521;SDS011;39398;48.382;9.802;2024-03-07T15:42:23;41.95;;;20.48;;
53521;SDS011;39398;48.382;9.802;2024-03-07T15:47:26;45.85;;;27.40;;
53521;SDS011;39398;48.382;9.802;2024-03-07T15:52:27;41.13;;;21.50;;
53521;SDS011;39398;48.382;9.802;2024-03-07T15:57:29;45.28;;;25.48;;
53521;SDS011;39398;48.382;9.802;2024-03-07T16:02:32;40.88;;;21.95;;
53521;SDS011;39398;48.382;9.802;2024-03-07T16:07:33;38.53;;;23.80;;
53521;SDS011;39398;48.382;9.802;2024-03-07T16:12:35;39.17;;;23.95;;
53521;SDS011;39398;48.382;9.802;2024-03-07T16:17:38;41.28;;;24.55;;
53521;SDS011;39398;48.382;9.802;2024-03-07T16:22:40;41.03;;;24.33;;
53521;SDS011;39398;48.382;9.802;2024-03-07T16:27:42;41.22;;;24.27;;
53521;SDS011;39398;48.382;9.802;2024-03-07T16:32:47;39.53;;;22.98;;
53521;SDS011;39398;48.382;9.802;2024-03-07T16:37:51;42.65;;;26.27;;
53521;SDS011;39398;48.382;9.802;2024-03-07T16:42:54;43.65;;;25.55;;
53521;SDS011;39398;48.382;9.802;2024-03-07T16:47:59;47.33;;;27.73;;
53521;SDS011;39398;48.382;9.802;2024-03-07T16:53:02;45.05;;;27.70;;
53521;SDS011;39398;48.382;9.802;2024-03-07T16:58:04;43.08;;;26.40;;
53521;SDS011;39398;48.382;9.802;2024-03-07T17:03:11;43.20;;;26.52;;
53521;SDS011;39398;48.382;9.802;2024-03-07T17:08:13;46.05;;;26.48;;
53521;SDS011;39398;48.382;9.802;2024-03-07T17:13:16;45.38;;;25.83;;
53521;SDS011;39398;48.382;9.802;2024-03-07T17:18:19;48.25;;;27.13;;
53521;SDS011;39398;48.382;9.802;2024-03-07T17:23:22;42.35;;;24.73;;
53521;SDS011;39398;48.382;9.802;2024-03-07T17:28:24;44.78;;;26.05;;
53521;SDS011;39398;48.382;9.802;2024-03-07T17:33:27;46.58;;;26.80;;
53521;SDS011;39398;48.382;9.802;2024-03-07T17:38:29;43.17;;;23.77;;
53521;SDS011;39398;48.382;9.802;2024-03-07T17:43:30;44.42;;;23.35;;
53521;SDS011;39398;48.382;9.802;2024-03-07T17:48:33;32.58;;;14.18;;
53521;SDS011;39398;48.382;9.802;2024-03-07T17:53:35;38.63;;;20.73;;
53521;SDS011;39398;48.382;9.802;2024-03-07T17:58:37;38.72;;;23.13;;
53521;SDS011;39398;48.382;9.802;2024-03-07T18:03:41;33.20;;;20.77;;
53521;SDS011;39398;48.382;9.802;2024-03-07T18:08:42;34.28;;;20.05;;
53521;SDS011;39398;48.382;9.802;2024-03-07T18:13:55;33.88;;;19.02;;
53521;SDS011;39398;48.382;9.802;2024-03-07T18:18:58;33.53;;;20.30;;
53521;SDS011;39398;48.382;9.802;2024-03-07T18:24:00;32.15;;;18.33;;
53521;SDS011;39398;48.382;9.802;2024-03-07T18:29:02;34.95;;;20.20;;
53521;SDS011;39398;48.382;9.802;2024-03-07T18:34:05;35.03;;;20.80;;
53521;SDS011;39398;48.382;9.802;2024-03-07T18:39:06;38.58;;;22.83;;
53521;SDS011;39398;48.382;9.802;2024-03-07T18:44:08;38.88;;;20.70;;
53521;SDS011;39398;48.382;9.802;2024-03-07T18:49:11;34.10;;;19.83;;
53521;SDS011;39398;48.382;9.802;2024-03-07T18:54:13;37.03;;;21.58;;
53521;SDS011;39398;48.382;9.802;2024-03-07T18:59:14;37.67;;;21.80;;
53521;SDS011;39398;48.382;9.802;2024-03-07T19:04:17;34.38;;;19.83;;
53521;SDS011;39398;48.382;9.802;2024-03-07T19:09:19;35.33;;;20.95;;
53521;SDS011;39398;48.382;9.802;2024-03-07T19:14:20;34.72;;;21.27;;
53521;SDS011;39398;48.382;9.802;2024-03-07T19:19:24;40.72;;;22.15;;
53521;SDS011;39398;48.382;9.802;2024-03-07T19:24:26;39.47;;;21.80;;
53521;SDS011;39398;48.382;9.802;2024-03-07T19:29:29;39.53;;;22.80;;
53521;SDS011;39398;48.382;9.802;2024-03-07T19:34:31;41.75;;;22.33;;
53521;SDS011;39398;48.382;9.802;2024-03-07T19:39:33;38.28;;;21.77;;
53521;SDS011;39398;48.382;9.802;2024-03-07T19:44:37;39.25;;;22.58;;
53521;SDS011;39398;48.382;9.802;2024-03-07T19:49:41;40.63;;;23.60;;
53521;SDS011;39398;48.382;9.802;2024-03-07T19:54:42;40.53;;;23.02;;
53521;SDS011;39398;48.382;9.802;2024-03-07T19:59:45;47.10;;;25.65;;
53521;SDS011;39398;48.382;9.802;2024-03-07T20:04:48;41.22;;;23.10;;
53521;SDS011;39398;48.382;9.802;2024-03-07T20:09:50;44.53;;;25.17;;
53521;SDS011;39398;48.382;9.802;2024-03-07T20:14:51;43.97;;;23.38;;
53521;SDS011;39398;48.382;9.802;2024-03-07T20:19:55;45.35;;;25.00;;
53521;SDS011;39398;48.382;9.802;2024-03-07T20:24:57;50.00;;;25.58;;
53521;SDS011;39398;48.382;9.802;2024-03-07T20:30:00;45.83;;;24.55;;
53521;SDS011;39398;48.382;9.802;2024-03-07T20:35:03;45.70;;;24.83;;
53521;SDS011;39398;48.382;9.802;2024-03-07T20:40:08;47.63;;;25.33;;
53521;SDS011;39398;48.382;9.802;2024-03-07T20:45:12;46.72;;;26.05;;
53521;SDS011;39398;48.382;9.802;2024-03-07T20:50:18;49.97;;;25.95;;
53521;SDS011;39398;48.382;9.802;2024-03-07T20:55:21;48.22;;;26.35;;
53521;SDS011;39398;48.382;9.802;2024-03-07T21:00:23;53.97;;;28.40;;
53521;SDS011;39398;48.382;9.802;2024-03-07T21:05:28;49.38;;;26.38;;
53521;SDS011;39398;48.382;9.802;2024-03-07T21:10:29;49.95;;;26.20;;
53521;SDS011;39398;48.382;9.802;2024-03-07T21:15:31;49.08;;;25.83;;
53521;SDS011;39398;48.382;9.802;2024-03-07T21:20:35;54.90;;;26.88;;
53521;SDS011;39398;48.382;9.802;2024-03-07T21:25:38;55.08;;;28.15;;
53521;SDS011;39398;48.382;9.802;2024-03-07T21:30:39;55.90;;;27.15;;
53521;SDS011;39398;48.382;9.802;2024-03-07T21:35:44;51.75;;;27.17;;
53521;SDS011;39398;48.382;9.802;2024-03-07T21:40:45;62.40;;;30.23;;
53521;SDS011;39398;48.382;9.802;2024-03-07T21:45:47;56.30;;;26.08;;
53521;SDS011;39398;48.382;9.802;2024-03-07T21:50:51;59.80;;;30.08;;
53521;SDS011;39398;48.382;9.802;2024-03-07T21:55:53;62.65;;;31.63;;
53521;SDS011;39398;48.382;9.802;2024-03-07T22:00:56;59.83;;;29.73;;
53521;SDS011;39398;48.382;9.802;2024-03-07T22:05:59;55.70;;;26.55;;
53521;SDS011;39398;48.382;9.802;2024-03-07T22:11:01;66.03;;;30.75;;
53521;SDS011;39398;48.382;9.802;2024-03-07T22:16:03;64.25;;;30.80;;
53521;SDS011;39398;48.382;9.802;2024-03-07T22:21:07;65.18;;;30.85;;
53521;SDS011;39398;48.382;9.802;2024-03-07T22:26:12;61.85;;;30.80;;
53521;SDS011;39398;48.382;9.802;2024-03-07T22:31:13;64.85;;;29.50;;
53521;SDS011;39398;48.382;9.802;2024-03-07T22:36:17;60.00;;;29.13;;
53521;SDS011;39398;48.382;9.802;2024-03-07T22:41:19;63.38;;;29.15;;
53521;SDS011;39398;48.382;9.802;2024-03-07T22:46:20;58.15;;;29.08;;
53521;SDS011;39398;48.382;9.802;2024-03-07T22:51:23;63.85;;;30.80;;
53521;SDS011;39398;48.382;9.802;2024-03-07T22:56:25;77.75;;;33.50;;
53521;SDS011;39398;48.382;9.802;2024-03-07T23:01:30;66.63;;;28.20;;
53521;SDS011;39398;48.382;9.802;2024-03-07T23:06:33;64.20;;;31.05;;
53521;SDS011;39398;48.382;9.802;2024-03-07T23:11:35;66.75;;;31.52;;
53521;SDS011;39398;48.382;9.802;2024-03-07T23:16:37;73.13;;;32.67;;
53521;SDS011;39398;48.382;9.802;2024-03-07T23:21:41;66.95;;;32.72;;
53521;SDS011;39398;48.382;9.802;2024-03-07T23:26:45;70.50;;;32.55;;
53521;SDS011;39398;48.382;9.802;2024-03-07T23:31:47;70.35;;;32.35;;
53521;SDS011;39398;48.382;9.802;2024-03-07T23:36:50;71.85;;;30.55;;
53521;SDS011;39398;48.382;9.802;2024-03-07T23:41:52;77.47;;;34.40;;
53521;SDS011;39398;48.382;9.802;2024-03-07T23:46:54;64.93;;;29.30;;
53521;SDS011;39398;48.382;9.802;2024-03-07T23:51:57;71.32;;;31.00;;
53521;SDS011;39398;48.382;9.802;2024-03-07T23:56:59;78.28;;;33.58;;
